sensor_id;sensor_type;location;lat;lon;timestamp;P1;durP1;ratioP1;P2;durP2;ratioP2
14381;SDS011;7275;50.328;8.720;2023-11-18T00:01:33;5.30;;;4.30;;
14381;SDS011;7275;50.328;8.720;2023-11-18T00:04:01;6.50;;;4.80;;
14381;SDS011;7275;50.328;8.720;2023-11-18T00:06:29;10.23;;;6.80;;
14381;SDS011;7275;50.328;8.720;2023-11-18T00:08:56;7.37;;;5.93;;
14381;SDS011;7275;50.328;8.720;2023-11-18T00:11:24;9.03;;;5.77;;
14381;SDS011;7275;50.328;8.720;2023-11-18T00:13:51;11.37;;;6.67;;
14381;SDS011;7275;50.328;8.720;2023-11-18T00:16:21;15.30;;;7.97;;
14381;SDS011;7275;50.328;8.720;2023-11-18T00:18:49;61.77;;;9.93;;
14381;SDS011;7275;50.328;8.720;2023-11-18T00:21:16;36.33;;;9.73;;
14381;SDS011;7275;50.328;8.720;2023-11-18T00:23:44;47.63;;;9.47;;
14381;SDS011;7275;50.328;8.720;2023-11-18T00:26:12;36.10;;;10.20;;
14381;SDS011;7275;50.328;8.720;2023-11-18T00:28:40;27.53;;;8.17;;
14381;SDS011;7275;50.328;8.720;2023-11-18T00:31:08;46.57;;;7.40;;
14381;SDS011;7275;50.328;8.720;2023-11-18T00:33:37;16.83;;;7.00;;
14381;SDS011;7275;50.328;8.720;2023-11-18T00:36:05;28.63;;;7.90;;
14381;SDS011;7275;50.328;8.720;2023-11-18T00:38:33;40.10;;;8.63;;
14381;SDS011;7275;50.328;8.720;2023-11-18T00:41:01;58.33;;;7.93;;
14381;SDS011;7275;50.328;8.720;2023-11-18T00:43:28;35.40;;;6.93;;
14381;SDS011;7275;50.328;8.720;2023-11-18T00:45:57;20.67;;;5.93;;
14381;SDS011;7275;50.328;8.720;2023-11-18T00:48:25;41.37;;;6.07;;
14381;SDS011;7275;50.328;8.720;2023-11-18T00:50:55;56.30;;;6.37;;
14381;SDS011;7275;50.328;8.720;2023-11-18T00:53:23;95.17;;;7.77;;
14381;SDS011;7275;50.328;8.720;2023-11-18T00:55:51;73.77;;;8.43;;
14381;SDS011;7275;50.328;8.720;2023-11-18T00:58:18;129.73;;;9.63;;
14381;SDS011;7275;50.328;8.720;2023-11-18T01:00:46;103.67;;;8.87;;
14381;SDS011;7275;50.328;8.720;2023-11-18T01:03:13;69.43;;;8.90;;
14381;SDS011;7275;50.328;8.720;2023-11-18T01:05:41;58.30;;;8.67;;
14381;SDS011;7275;50.328;8.720;2023-11-18T01:08:10;33.33;;;8.30;;
14381;SDS011;7275;50.328;8.720;2023-11-18T01:10:37;91.10;;;10.50;;
14381;SDS011;7275;50.328;8.720;2023-11-18T01:13:05;43.87;;;8.60;;
14381;SDS011;7275;50.328;8.720;2023-11-18T01:15:33;71.13;;;8.40;;
14381;SDS011;7275;50.328;8.720;2023-11-18T01:18:00;39.20;;;7.70;;
14381;SDS011;7275;50.328;8.720;2023-11-18T01:20:28;20.90;;;8.70;;
14381;SDS011;7275;50.328;8.720;2023-11-18T01:22:56;51.50;;;10.00;;
14381;SDS011;7275;50.328;8.720;2023-11-18T01:25:25;43.57;;;9.30;;
14381;SDS011;7275;50.328;8.720;2023-11-18T01:27:53;27.23;;;9.10;;
14381;SDS011;7275;50.328;8.720;2023-11-18T01:30:20;31.83;;;9.30;;
14381;SDS011;7275;50.328;8.720;2023-11-18T01:32:49;41.10;;;8.90;;
14381;SDS011;7275;50.328;8.720;2023-11-18T01:35:17;33.40;;;8.73;;
14381;SDS011;7275;50.328;8.720;2023-11-18T01:37:45;25.10;;;8.20;;
14381;SDS011;7275;50.328;8.720;2023-11-18T01:40:14;45.23;;;7.43;;
14381;SDS011;7275;50.328;8.720;2023-11-18T01:42:43;48.97;;;8.30;;
14381;SDS011;7275;50.328;8.720;2023-11-18T01:45:12;42.47;;;7.27;;
14381;SDS011;7275;50.328;8.720;2023-11-18T01:47:40;35.07;;;8.60;;
14381;SDS011;7275;50.328;8.720;2023-11-18T01:50:09;22.83;;;8.50;;
14381;SDS011;7275;50.328;8.720;2023-11-18T01:52:39;32.47;;;8.30;;
14381;SDS011;7275;50.328;8.720;2023-11-18T01:55:11;25.40;;;8.33;;
14381;SDS011;7275;50.328;8.720;2023-11-18T01:57:39;37.70;;;7.07;;
14381;SDS011;7275;50.328;8.720;2023-11-18T02:00:11;42.50;;;7.50;;
14381;SDS011;7275;50.328;8.720;2023-11-18T02:02:43;36.13;;;8.70;;
14381;SDS011;7275;50.328;8.720;2023-11-18T02:05:11;38.33;;;8.50;;
14381;SDS011;7275;50.328;8.720;2023-11-18T02:07:39;15.77;;;6.80;;
14381;SDS011;7275;50.328;8.720;2023-11-18T02:10:07;35.63;;;7.53;;
14381;SDS011;7275;50.328;8.720;2023-11-18T02:12:38;15.90;;;7.73;;
14381;SDS011;7275;50.328;8.720;2023-11-18T02:15:15;31.03;;;7.83;;
14381;SDS011;7275;50.328;8.720;2023-11-18T02:17:44;21.13;;;8.03;;
14381;SDS011;7275;50.328;8.720;2023-11-18T02:20:13;12.57;;;7.40;;
14381;SDS011;7275;50.328;8.720;2023-11-18T02:22:43;29.97;;;7.40;;
14381;SDS011;7275;50.328;8.720;2023-11-18T02:25:10;16.63;;;7.53;;
14381;SDS011;7275;50.328;8.720;2023-11-18T02:27:44;30.20;;;7.60;;
14381;SDS011;7275;50.328;8.720;2023-11-18T02:30:12;16.87;;;8.10;;
14381;SDS011;7275;50.328;8.720;2023-11-18T02:32:45;28.47;;;7.90;;
14381;SDS011;7275;50.328;8.720;2023-11-18T02:35:17;26.17;;;9.30;;
14381;SDS011;7275;50.328;8.720;2023-11-18T02:37:52;28.83;;;9.37;;
14381;SDS011;7275;50.328;8.720;2023-11-18T02:40:23;51.00;;;9.53;;
14381;SDS011;7275;50.328;8.720;2023-11-18T02:42:58;32.17;;;8.70;;
14381;SDS011;7275;50.328;8.720;2023-11-18T02:45:27;23.03;;;9.23;;
14381;SDS011;7275;50.328;8.720;2023-11-18T02:47:55;56.93;;;8.53;;
14381;SDS011;7275;50.328;8.720;2023-11-18T02:50:23;30.97;;;8.73;;
14381;SDS011;7275;50.328;8.720;2023-11-18T02:52:51;32.90;;;8.97;;
14381;SDS011;7275;50.328;8.720;2023-11-18T02:55:18;35.37;;;9.83;;
14381;SDS011;7275;50.328;8.720;2023-11-18T02:57:48;30.63;;;9.03;;
14381;SDS011;7275;50.328;8.720;2023-11-18T03:00:19;36.90;;;8.97;;
14381;SDS011;7275;50.328;8.720;2023-11-18T03:02:48;37.03;;;9.27;;
14381;SDS011;7275;50.328;8.720;2023-11-18T03:05:18;43.60;;;10.00;;
14381;SDS011;7275;50.328;8.720;2023-11-18T03:07:47;39.33;;;9.27;;
14381;SDS011;7275;50.328;8.720;2023-11-18T03:10:18;40.87;;;9.17;;
14381;SDS011;7275;50.328;8.720;2023-11-18T03:12:48;38.60;;;9.60;;
14381;SDS011;7275;50.328;8.720;2023-11-18T03:15:16;22.37;;;8.63;;
14381;SDS011;7275;50.328;8.720;2023-11-18T03:17:45;39.53;;;9.43;;
14381;SDS011;7275;50.328;8.720;2023-11-18T03:20:16;49.77;;;9.73;;
14381;SDS011;7275;50.328;8.720;2023-11-18T03:22:44;30.47;;;9.53;;
14381;SDS011;7275;50.328;8.720;2023-11-18T03:25:12;31.43;;;9.37;;
14381;SDS011;7275;50.328;8.720;2023-11-18T03:27:39;24.13;;;8.90;;
14381;SDS011;7275;50.328;8.720;2023-11-18T03:30:07;19.90;;;8.60;;
14381;SDS011;7275;50.328;8.720;2023-11-18T03:32:36;21.73;;;8.03;;
14381;SDS011;7275;50.328;8.720;2023-11-18T03:35:08;17.07;;;7.87;;
14381;SDS011;7275;50.328;8.720;2023-11-18T03:37:36;12.77;;;8.43;;
14381;SDS011;7275;50.328;8.720;2023-11-18T03:40:05;19.10;;;7.63;;
14381;SDS011;7275;50.328;8.720;2023-11-18T03:42:33;27.47;;;7.37;;
14381;SDS011;7275;50.328;8.720;2023-11-18T03:45:03;22.87;;;7.57;;
14381;SDS011;7275;50.328;8.720;2023-11-18T03:47:32;17.23;;;7.33;;
14381;SDS011;7275;50.328;8.720;2023-11-18T03:50:00;17.97;;;7.27;;
14381;SDS011;7275;50.328;8.720;2023-11-18T03:52:29;28.63;;;7.30;;
14381;SDS011;7275;50.328;8.720;2023-11-18T03:54:57;16.80;;;7.67;;
14381;SDS011;7275;50.328;8.720;2023-11-18T03:57:24;23.40;;;7.43;;
14381;SDS011;7275;50.328;8.720;2023-11-18T03:59:52;22.27;;;7.87;;
14381;SDS011;7275;50.328;8.720;2023-11-18T04:02:20;21.27;;;7.40;;
14381;SDS011;7275;50.328;8.720;2023-11-18T04:04:47;17.80;;;7.60;;
14381;SDS011;7275;50.328;8.720;2023-11-18T04:07:16;15.30;;;7.20;;
14381;SDS011;7275;50.328;8.720;2023-11-18T04:09:44;13.80;;;7.70;;
14381;SDS011;7275;50.328;8.720;2023-11-18T04:12:12;16.40;;;7.53;;
14381;SDS011;7275;50.328;8.720;2023-11-18T04:14:39;16.13;;;7.90;;
14381;SDS011;7275;50.328;8.720;2023-11-18T04:17:07;15.77;;;7.60;;
14381;SDS011;7275;50.328;8.720;2023-11-18T04:19:35;12.00;;;7.43;;
14381;SDS011;7275;50.328;8.720;2023-11-18T04:22:03;15.80;;;8.20;;
14381;SDS011;7275;50.328;8.720;2023-11-18T04:24:31;18.10;;;8.13;;
14381;SDS011;7275;50.328;8.720;2023-11-18T04:27:02;17.40;;;8.13;;
14381;SDS011;7275;50.328;8.720;2023-11-18T04:29:30;19.83;;;8.10;;
14381;SDS011;7275;50.328;8.720;2023-11-18T04:31:57;14.93;;;8.33;;
14381;SDS011;7275;50.328;8.720;2023-11-18T04:34:26;15.43;;;8.37;;
14381;SDS011;7275;50.328;8.720;2023-11-18T04:36:53;14.23;;;8.83;;
14381;SDS011;7275;50.328;8.720;2023-11-18T04:39:21;13.33;;;8.13;;
14381;SDS011;7275;50.328;8.720;2023-11-18T04:41:48;13.17;;;8.73;;
14381;SDS011;7275;50.328;8.720;2023-11-18T04:44:18;15.70;;;8.47;;
14381;SDS011;7275;50.328;8.720;2023-11-18T04:46:45;19.47;;;8.40;;
14381;SDS011;7275;50.328;8.720;2023-11-18T04:49:13;17.67;;;9.10;;
14381;SDS011;7275;50.328;8.720;2023-11-18T04:51:40;14.27;;;8.53;;
14381;SDS011;7275;50.328;8.720;2023-11-18T04:54:08;16.13;;;8.60;;
14381;SDS011;7275;50.328;8.720;2023-11-18T04:56:36;12.60;;;8.27;;
14381;SDS011;7275;50.328;8.720;2023-11-18T04:59:04;10.47;;;8.37;;
14381;SDS011;7275;50.328;8.720;2023-11-18T05:01:33;10.63;;;8.33;;
14381;SDS011;7275;50.328;8.720;2023-11-18T05:04:03;14.20;;;8.23;;
14381;SDS011;7275;50.328;8.720;2023-11-18T05:06:32;12.70;;;8.00;;
14381;SDS011;7275;50.328;8.720;2023-11-18T05:08:59;10.87;;;8.57;;
14381;SDS011;7275;50.328;8.720;2023-11-18T05:11:27;10.53;;;8.60;;
14381;SDS011;7275;50.328;8.720;2023-11-18T05:13:55;11.47;;;7.97;;
14381;SDS011;7275;50.328;8.720;2023-11-18T05:16:23;11.53;;;7.67;;
14381;SDS011;7275;50.328;8.720;2023-11-18T05:18:51;14.40;;;8.60;;
14381;SDS011;7275;50.328;8.720;2023-11-18T05:21:19;11.97;;;8.43;;
14381;SDS011;7275;50.328;8.720;2023-11-18T05:23:47;12.37;;;8.80;;
14381;SDS011;7275;50.328;8.720;2023-11-18T05:26:15;12.43;;;8.67;;
14381;SDS011;7275;50.328;8.720;2023-11-18T05:28:43;15.97;;;9.07;;
14381;SDS011;7275;50.328;8.720;2023-11-18T05:31:11;10.07;;;7.90;;
14381;SDS011;7275;50.328;8.720;2023-11-18T05:33:39;14.47;;;8.70;;
14381;SDS011;7275;50.328;8.720;2023-11-18T05:36:08;14.93;;;9.17;;
14381;SDS011;7275;50.328;8.720;2023-11-18T05:38:37;20.27;;;8.97;;
14381;SDS011;7275;50.328;8.720;2023-11-18T05:41:05;16.53;;;9.10;;
14381;SDS011;7275;50.328;8.720;2023-11-18T05:43:42;16.57;;;8.87;;
14381;SDS011;7275;50.328;8.720;2023-11-18T05:46:17;15.80;;;9.40;;
14381;SDS011;7275;50.328;8.720;2023-11-18T05:48:48;14.93;;;9.20;;
14381;SDS011;7275;50.328;8.720;2023-11-18T05:51:20;28.17;;;9.90;;
14381;SDS011;7275;50.328;8.720;2023-11-18T05:53:47;22.20;;;10.07;;
14381;SDS011;7275;50.328;8.720;2023-11-18T05:56:15;24.70;;;10.60;;
14381;SDS011;7275;50.328;8.720;2023-11-18T05:58:43;19.57;;;9.80;;
14381;SDS011;7275;50.328;8.720;2023-11-18T06:01:11;18.37;;;10.07;;
14381;SDS011;7275;50.328;8.720;2023-11-18T06:03:38;27.87;;;10.00;;
14381;SDS011;7275;50.328;8.720;2023-11-18T06:06:07;17.13;;;9.67;;
14381;SDS011;7275;50.328;8.720;2023-11-18T06:08:37;20.77;;;9.70;;
14381;SDS011;7275;50.328;8.720;2023-11-18T06:11:07;13.80;;;9.97;;
14381;SDS011;7275;50.328;8.720;2023-11-18T06:13:40;34.47;;;9.67;;
14381;SDS011;7275;50.328;8.720;2023-11-18T06:16:13;19.83;;;9.63;;
14381;SDS011;7275;50.328;8.720;2023-11-18T06:18:42;18.07;;;9.47;;
14381;SDS011;7275;50.328;8.720;2023-11-18T06:21:11;14.07;;;9.83;;
14381;SDS011;7275;50.328;8.720;2023-11-18T06:23:42;14.13;;;9.40;;
14381;SDS011;7275;50.328;8.720;2023-11-18T06:26:11;19.60;;;9.53;;
14381;SDS011;7275;50.328;8.720;2023-11-18T06:28:39;22.83;;;10.73;;
14381;SDS011;7275;50.328;8.720;2023-11-18T06:31:07;18.60;;;9.97;;
14381;SDS011;7275;50.328;8.720;2023-11-18T06:33:36;15.87;;;10.10;;
14381;SDS011;7275;50.328;8.720;2023-11-18T06:36:09;14.57;;;10.07;;
14381;SDS011;7275;50.328;8.720;2023-11-18T06:38:38;15.87;;;9.00;;
14381;SDS011;7275;50.328;8.720;2023-11-18T06:41:07;17.00;;;9.53;;
14381;SDS011;7275;50.328;8.720;2023-11-18T06:43:38;21.80;;;9.80;;
14381;SDS011;7275;50.328;8.720;2023-11-18T06:46:18;17.13;;;9.23;;
14381;SDS011;7275;50.328;8.720;2023-11-18T06:48:48;17.57;;;10.30;;
14381;SDS011;7275;50.328;8.720;2023-11-18T06:51:16;15.80;;;9.63;;
14381;SDS011;7275;50.328;8.720;2023-11-18T06:53:44;16.97;;;9.60;;
14381;SDS011;7275;50.328;8.720;2023-11-18T06:56:12;16.30;;;10.37;;
14381;SDS011;7275;50.328;8.720;2023-11-18T06:58:41;18.20;;;9.43;;
14381;SDS011;7275;50.328;8.720;2023-11-18T07:01:12;14.00;;;9.07;;
14381;SDS011;7275;50.328;8.720;2023-11-18T07:03:41;17.67;;;9.23;;
14381;SDS011;7275;50.328;8.720;2023-11-18T07:06:09;16.77;;;9.63;;
14381;SDS011;7275;50.328;8.720;2023-11-18T07:08:37;17.37;;;10.10;;
14381;SDS011;7275;50.328;8.720;2023-11-18T07:11:05;20.13;;;9.60;;
14381;SDS011;7275;50.328;8.720;2023-11-18T07:13:34;19.83;;;10.20;;
14381;SDS011;7275;50.328;8.720;2023-11-18T07:16:03;15.63;;;9.80;;
14381;SDS011;7275;50.328;8.720;2023-11-18T07:18:33;23.47;;;11.13;;
14381;SDS011;7275;50.328;8.720;2023-11-18T07:21:01;28.63;;;11.10;;
14381;SDS011;7275;50.328;8.720;2023-11-18T07:23:30;24.33;;;10.57;;
14381;SDS011;7275;50.328;8.720;2023-11-18T07:25:58;39.73;;;11.17;;
14381;SDS011;7275;50.328;8.720;2023-11-18T07:28:26;34.60;;;9.87;;
14381;SDS011;7275;50.328;8.720;2023-11-18T07:30:55;26.30;;;11.23;;
14381;SDS011;7275;50.328;8.720;2023-11-18T07:33:24;45.10;;;10.30;;
14381;SDS011;7275;50.328;8.720;2023-11-18T07:35:53;18.33;;;11.07;;
14381;SDS011;7275;50.328;8.720;2023-11-18T07:38:21;30.23;;;10.90;;
14381;SDS011;7275;50.328;8.720;2023-11-18T07:40:49;23.00;;;10.47;;
14381;SDS011;7275;50.328;8.720;2023-11-18T07:43:22;26.87;;;10.60;;
14381;SDS011;7275;50.328;8.720;2023-11-18T07:45:50;27.90;;;11.33;;
14381;SDS011;7275;50.328;8.720;2023-11-18T07:48:20;30.70;;;12.20;;
14381;SDS011;7275;50.328;8.720;2023-11-18T07:50:48;32.77;;;11.47;;
14381;SDS011;7275;50.328;8.720;2023-11-18T07:53:15;28.97;;;11.33;;
14381;SDS011;7275;50.328;8.720;2023-11-18T07:55:43;41.03;;;11.23;;
14381;SDS011;7275;50.328;8.720;2023-11-18T07:58:11;23.97;;;10.93;;
14381;SDS011;7275;50.328;8.720;2023-11-18T08:00:39;41.90;;;11.13;;
14381;SDS011;7275;50.328;8.720;2023-11-18T08:03:07;40.57;;;11.33;;
14381;SDS011;7275;50.328;8.720;2023-11-18T08:05:40;26.73;;;10.87;;
14381;SDS011;7275;50.328;8.720;2023-11-18T08:08:09;31.90;;;10.70;;
14381;SDS011;7275;50.328;8.720;2023-11-18T08:10:38;36.17;;;11.50;;
14381;SDS011;7275;50.328;8.720;2023-11-18T08:15:37;41.63;;;11.97;;
14381;SDS011;7275;50.328;8.720;2023-11-18T08:18:06;44.50;;;11.80;;
14381;SDS011;7275;50.328;8.720;2023-11-18T08:20:34;26.10;;;10.93;;
14381;SDS011;7275;50.328;8.720;2023-11-18T08:23:03;37.93;;;11.83;;
14381;SDS011;7275;50.328;8.720;2023-11-18T08:25:31;31.53;;;12.20;;
14381;SDS011;7275;50.328;8.720;2023-11-18T08:27:59;45.03;;;12.90;;
14381;SDS011;7275;50.328;8.720;2023-11-18T08:30:27;39.03;;;12.33;;
14381;SDS011;7275;50.328;8.720;2023-11-18T08:32:55;25.47;;;11.47;;
14381;SDS011;7275;50.328;8.720;2023-11-18T08:35:24;31.10;;;12.53;;
14381;SDS011;7275;50.328;8.720;2023-11-18T08:37:51;38.77;;;13.27;;
14381;SDS011;7275;50.328;8.720;2023-11-18T08:40:20;29.90;;;12.70;;
14381;SDS011;7275;50.328;8.720;2023-11-18T08:42:49;20.63;;;11.53;;
14381;SDS011;7275;50.328;8.720;2023-11-18T08:45:18;35.40;;;11.70;;
14381;SDS011;7275;50.328;8.720;2023-11-18T08:47:47;39.73;;;12.93;;
14381;SDS011;7275;50.328;8.720;2023-11-18T08:50:16;55.73;;;13.50;;
14381;SDS011;7275;50.328;8.720;2023-11-18T08:52:44;34.80;;;13.57;;
14381;SDS011;7275;50.328;8.720;2023-11-18T08:55:14;38.73;;;12.80;;
14381;SDS011;7275;50.328;8.720;2023-11-18T08:57:47;46.40;;;12.97;;
14381;SDS011;7275;50.328;8.720;2023-11-18T09:00:24;45.53;;;13.57;;
14381;SDS011;7275;50.328;8.720;2023-11-18T09:03:10;53.40;;;13.60;;
14381;SDS011;7275;50.328;8.720;2023-11-18T09:05:44;54.40;;;12.60;;
14381;SDS011;7275;50.328;8.720;2023-11-18T09:08:26;50.03;;;13.10;;
14381;SDS011;7275;50.328;8.720;2023-11-18T09:10:56;30.87;;;13.13;;
14381;SDS011;7275;50.328;8.720;2023-11-18T09:13:25;42.73;;;12.63;;
14381;SDS011;7275;50.328;8.720;2023-11-18T09:15:55;66.50;;;14.40;;
14381;SDS011;7275;50.328;8.720;2023-11-18T09:18:23;61.57;;;13.60;;
14381;SDS011;7275;50.328;8.720;2023-11-18T09:20:52;43.17;;;13.40;;
14381;SDS011;7275;50.328;8.720;2023-11-18T09:23:21;33.30;;;13.10;;
14381;SDS011;7275;50.328;8.720;2023-11-18T09:25:51;45.43;;;12.53;;
14381;SDS011;7275;50.328;8.720;2023-11-18T09:28:20;66.03;;;13.00;;
14381;SDS011;7275;50.328;8.720;2023-11-18T09:30:49;48.67;;;12.63;;
14381;SDS011;7275;50.328;8.720;2023-11-18T09:33:20;39.10;;;13.10;;
14381;SDS011;7275;50.328;8.720;2023-11-18T09:35:58;61.40;;;12.70;;
14381;SDS011;7275;50.328;8.720;2023-11-18T09:38:27;38.00;;;12.33;;
14381;SDS011;7275;50.328;8.720;2023-11-18T09:40:55;40.40;;;12.13;;
14381;SDS011;7275;50.328;8.720;2023-11-18T09:43:28;71.70;;;14.37;;
14381;SDS011;7275;50.328;8.720;2023-11-18T09:46:03;47.70;;;13.57;;
14381;SDS011;7275;50.328;8.720;2023-11-18T09:48:42;38.10;;;12.27;;
14381;SDS011;7275;50.328;8.720;2023-11-18T09:51:14;70.43;;;13.30;;
14381;SDS011;7275;50.328;8.720;2023-11-18T09:53:44;37.17;;;12.43;;
14381;SDS011;7275;50.328;8.720;2023-11-18T09:56:14;47.93;;;12.57;;
14381;SDS011;7275;50.328;8.720;2023-11-18T09:58:57;36.43;;;13.20;;
14381;SDS011;7275;50.328;8.720;2023-11-18T10:01:35;50.27;;;13.40;;
14381;SDS011;7275;50.328;8.720;2023-11-18T10:04:06;45.87;;;13.23;;
14381;SDS011;7275;50.328;8.720;2023-11-18T10:06:34;67.27;;;15.13;;
14381;SDS011;7275;50.328;8.720;2023-11-18T10:09:02;43.00;;;13.87;;
14381;SDS011;7275;50.328;8.720;2023-11-18T10:11:42;52.13;;;15.13;;
14381;SDS011;7275;50.328;8.720;2023-11-18T10:14:13;47.23;;;14.70;;
14381;SDS011;7275;50.328;8.720;2023-11-18T10:16:44;36.13;;;15.17;;
14381;SDS011;7275;50.328;8.720;2023-11-18T10:19:15;62.93;;;17.57;;
14381;SDS011;7275;50.328;8.720;2023-11-18T10:21:43;39.67;;;15.30;;
14381;SDS011;7275;50.328;8.720;2023-11-18T10:24:15;39.37;;;16.33;;
14381;SDS011;7275;50.328;8.720;2023-11-18T10:26:53;50.00;;;16.10;;
14381;SDS011;7275;50.328;8.720;2023-11-18T10:29:23;40.10;;;15.33;;
14381;SDS011;7275;50.328;8.720;2023-11-18T10:32:04;40.77;;;17.30;;
14381;SDS011;7275;50.328;8.720;2023-11-18T10:34:35;35.87;;;17.20;;
14381;SDS011;7275;50.328;8.720;2023-11-18T10:37:03;43.57;;;16.67;;
14381;SDS011;7275;50.328;8.720;2023-11-18T10:39:33;46.33;;;17.80;;
14381;SDS011;7275;50.328;8.720;2023-11-18T10:42:02;37.43;;;16.47;;
14381;SDS011;7275;50.328;8.720;2023-11-18T10:44:30;41.80;;;18.10;;
14381;SDS011;7275;50.328;8.720;2023-11-18T10:46:58;34.97;;;17.00;;
14381;SDS011;7275;50.328;8.720;2023-11-18T10:49:27;32.00;;;17.70;;
14381;SDS011;7275;50.328;8.720;2023-11-18T10:52:03;34.03;;;18.87;;
14381;SDS011;7275;50.328;8.720;2023-11-18T10:54:34;30.07;;;18.00;;
14381;SDS011;7275;50.328;8.720;2023-11-18T10:57:03;35.67;;;19.40;;
14381;SDS011;7275;50.328;8.720;2023-11-18T10:59:34;34.87;;;19.17;;
14381;SDS011;7275;50.328;8.720;2023-11-18T11:02:17;34.70;;;18.00;;
14381;SDS011;7275;50.328;8.720;2023-11-18T11:04:49;43.93;;;19.83;;
14381;SDS011;7275;50.328;8.720;2023-11-18T11:07:16;45.17;;;18.50;;
14381;SDS011;7275;50.328;8.720;2023-11-18T11:09:46;34.33;;;17.57;;
14381;SDS011;7275;50.328;8.720;2023-11-18T11:12:15;42.13;;;18.57;;
14381;SDS011;7275;50.328;8.720;2023-11-18T11:14:46;37.37;;;18.80;;
14381;SDS011;7275;50.328;8.720;2023-11-18T11:17:21;71.63;;;20.33;;
14381;SDS011;7275;50.328;8.720;2023-11-18T11:20:01;69.30;;;20.00;;
14381;SDS011;7275;50.328;8.720;2023-11-18T11:22:46;49.97;;;18.03;;
14381;SDS011;7275;50.328;8.720;2023-11-18T11:25:26;67.33;;;20.53;;
14381;SDS011;7275;50.328;8.720;2023-11-18T11:28:04;52.00;;;19.23;;
14381;SDS011;7275;50.328;8.720;2023-11-18T11:30:40;50.27;;;20.03;;
14381;SDS011;7275;50.328;8.720;2023-11-18T11:33:13;56.33;;;21.37;;
14381;SDS011;7275;50.328;8.720;2023-11-18T11:35:48;45.10;;;21.27;;
14381;SDS011;7275;50.328;8.720;2023-11-18T11:38:23;54.37;;;22.27;;
14381;SDS011;7275;50.328;8.720;2023-11-18T11:40:53;88.93;;;24.17;;
14381;SDS011;7275;50.328;8.720;2023-11-18T11:43:22;68.27;;;21.40;;
14381;SDS011;7275;50.328;8.720;2023-11-18T11:45:54;52.37;;;20.63;;
14381;SDS011;7275;50.328;8.720;2023-11-18T11:48:22;66.40;;;21.00;;
14381;SDS011;7275;50.328;8.720;2023-11-18T11:51:05;64.33;;;21.43;;
14381;SDS011;7275;50.328;8.720;2023-11-18T11:53:42;59.00;;;22.27;;
14381;SDS011;7275;50.328;8.720;2023-11-18T11:56:13;56.77;;;19.93;;
14381;SDS011;7275;50.328;8.720;2023-11-18T11:58:47;68.60;;;21.43;;
14381;SDS011;7275;50.328;8.720;2023-11-18T12:01:21;70.50;;;22.80;;
14381;SDS011;7275;50.328;8.720;2023-11-18T12:03:58;51.50;;;21.83;;
14381;SDS011;7275;50.328;8.720;2023-11-18T12:06:34;54.73;;;21.27;;
14381;SDS011;7275;50.328;8.720;2023-11-18T12:09:09;53.23;;;20.17;;
14381;SDS011;7275;50.328;8.720;2023-11-18T12:11:37;45.83;;;20.70;;
14381;SDS011;7275;50.328;8.720;2023-11-18T12:14:08;48.07;;;21.20;;
14381;SDS011;7275;50.328;8.720;2023-11-18T12:16:59;36.63;;;21.63;;
14381;SDS011;7275;50.328;8.720;2023-11-18T12:19:37;31.93;;;21.70;;
14381;SDS011;7275;50.328;8.720;2023-11-18T12:22:17;37.70;;;21.63;;
14381;SDS011;7275;50.328;8.720;2023-11-18T12:24:45;35.33;;;22.43;;
14381;SDS011;7275;50.328;8.720;2023-11-18T12:27:42;42.43;;;22.27;;
14381;SDS011;7275;50.328;8.720;2023-11-18T12:33:51;45.93;;;22.37;;
14381;SDS011;7275;50.328;8.720;2023-11-18T12:39:51;42.00;;;21.83;;
14381;SDS011;7275;50.328;8.720;2023-11-18T12:43:03;33.70;;;21.80;;
14381;SDS011;7275;50.328;8.720;2023-11-18T12:45:44;36.90;;;21.90;;
14381;SDS011;7275;50.328;8.720;2023-11-18T12:48:27;48.90;;;23.10;;
14381;SDS011;7275;50.328;8.720;2023-11-18T12:50:59;42.27;;;22.43;;
14381;SDS011;7275;50.328;8.720;2023-11-18T12:53:27;34.90;;;21.70;;
14381;SDS011;7275;50.328;8.720;2023-11-18T12:55:56;37.27;;;22.37;;
14381;SDS011;7275;50.328;8.720;2023-11-18T12:58:25;37.27;;;22.63;;
14381;SDS011;7275;50.328;8.720;2023-11-18T13:00:52;38.40;;;22.60;;
14381;SDS011;7275;50.328;8.720;2023-11-18T13:03:20;36.17;;;22.63;;
14381;SDS011;7275;50.328;8.720;2023-11-18T13:05:49;38.20;;;22.30;;
14381;SDS011;7275;50.328;8.720;2023-11-18T13:08:18;39.67;;;23.37;;
14381;SDS011;7275;50.328;8.720;2023-11-18T13:10:48;33.93;;;22.57;;
14381;SDS011;7275;50.328;8.720;2023-11-18T13:13:17;38.00;;;23.77;;
14381;SDS011;7275;50.328;8.720;2023-11-18T13:15:46;36.87;;;22.77;;
14381;SDS011;7275;50.328;8.720;2023-11-18T13:18:16;33.90;;;21.43;;
14381;SDS011;7275;50.328;8.720;2023-11-18T13:20:55;36.30;;;21.50;;
14381;SDS011;7275;50.328;8.720;2023-11-18T13:23:24;32.87;;;20.63;;
14381;SDS011;7275;50.328;8.720;2023-11-18T13:25:54;32.20;;;21.33;;
14381;SDS011;7275;50.328;8.720;2023-11-18T13:28:22;32.57;;;19.60;;
14381;SDS011;7275;50.328;8.720;2023-11-18T13:30:51;29.20;;;19.00;;
14381;SDS011;7275;50.328;8.720;2023-11-18T13:33:19;29.13;;;19.23;;
14381;SDS011;7275;50.328;8.720;2023-11-18T13:35:47;31.47;;;19.83;;
14381;SDS011;7275;50.328;8.720;2023-11-18T13:38:18;27.03;;;18.47;;
14381;SDS011;7275;50.328;8.720;2023-11-18T13:40:46;32.70;;;18.87;;
14381;SDS011;7275;50.328;8.720;2023-11-18T13:43:15;27.90;;;18.07;;
14381;SDS011;7275;50.328;8.720;2023-11-18T13:45:43;29.57;;;18.40;;
14381;SDS011;7275;50.328;8.720;2023-11-18T13:48:11;26.27;;;17.80;;
14381;SDS011;7275;50.328;8.720;2023-11-18T13:50:40;27.10;;;18.03;;
14381;SDS011;7275;50.328;8.720;2023-11-18T13:53:08;24.60;;;17.73;;
14381;SDS011;7275;50.328;8.720;2023-11-18T13:55:38;27.90;;;18.50;;
14381;SDS011;7275;50.328;8.720;2023-11-18T13:58:07;28.80;;;18.97;;
14381;SDS011;7275;50.328;8.720;2023-11-18T14:00:36;39.80;;;19.93;;
14381;SDS011;7275;50.328;8.720;2023-11-18T14:03:04;28.00;;;19.30;;
14381;SDS011;7275;50.328;8.720;2023-11-18T14:05:33;29.00;;;18.77;;
14381;SDS011;7275;50.328;8.720;2023-11-18T14:08:01;26.57;;;18.13;;
14381;SDS011;7275;50.328;8.720;2023-11-18T14:10:36;24.43;;;17.50;;
14381;SDS011;7275;50.328;8.720;2023-11-18T14:13:05;27.20;;;18.43;;
14381;SDS011;7275;50.328;8.720;2023-11-18T14:15:38;27.90;;;18.57;;
14381;SDS011;7275;50.328;8.720;2023-11-18T14:18:08;25.80;;;18.17;;
14381;SDS011;7275;50.328;8.720;2023-11-18T14:20:36;27.03;;;17.83;;
14381;SDS011;7275;50.328;8.720;2023-11-18T14:23:04;28.33;;;18.63;;
14381;SDS011;7275;50.328;8.720;2023-11-18T14:25:32;28.43;;;19.70;;
14381;SDS011;7275;50.328;8.720;2023-11-18T14:28:00;30.67;;;19.40;;
14381;SDS011;7275;50.328;8.720;2023-11-18T14:30:30;30.57;;;19.33;;
14381;SDS011;7275;50.328;8.720;2023-11-18T14:32:57;30.40;;;18.37;;
14381;SDS011;7275;50.328;8.720;2023-11-18T14:35:25;28.73;;;18.27;;
14381;SDS011;7275;50.328;8.720;2023-11-18T14:37:55;28.47;;;18.50;;
14381;SDS011;7275;50.328;8.720;2023-11-18T14:40:23;26.20;;;18.17;;
14381;SDS011;7275;50.328;8.720;2023-11-18T15:20:43;10.53;;;8.90;;
14381;SDS011;7275;50.328;8.720;2023-11-18T15:23:14;11.17;;;8.40;;
14381;SDS011;7275;50.328;8.720;2023-11-18T15:25:44;10.60;;;8.40;;
14381;SDS011;7275;50.328;8.720;2023-11-18T15:28:11;10.27;;;8.40;;
14381;SDS011;7275;50.328;8.720;2023-11-18T15:30:40;9.87;;;8.67;;
14381;SDS011;7275;50.328;8.720;2023-11-18T15:33:10;11.13;;;8.53;;
14381;SDS011;7275;50.328;8.720;2023-11-18T15:35:39;12.50;;;9.63;;
14381;SDS011;7275;50.328;8.720;2023-11-18T15:38:09;10.07;;;8.70;;
14381;SDS011;7275;50.328;8.720;2023-11-18T15:40:44;11.37;;;8.93;;
14381;SDS011;7275;50.328;8.720;2023-11-18T15:43:11;10.53;;;9.20;;
14381;SDS011;7275;50.328;8.720;2023-11-18T15:45:39;11.13;;;8.97;;